createdAt,value
2022-10-06T00:00:49.089Z,67.37
2022-10-06T00:06:24.755Z,67.02
2022-10-06T00:11:56.175Z,67.26
2022-10-06T00:17:27.699Z,67.10
2022-10-06T00:22:58.748Z,67.31
2022-10-06T00:28:30.235Z,67.40
2022-10-06T00:34:02.545Z,67.11
2022-10-06T00:39:33.638Z,67.48
2022-10-06T00:45:06.457Z,67.15
2022-10-06T00:50:38.410Z,67.09
2022-10-06T00:56:09.728Z,67.03
2022-10-06T01:01:44.738Z,66.93
2022-10-06T01:07:17.908Z,66.86
2022-10-06T01:12:48.938Z,66.56
2022-10-06T01:18:22.107Z,66.75
2022-10-06T01:23:53.223Z,66.96
2022-10-06T01:29:25.596Z,66.83
2022-10-06T01:34:56.932Z,67.09
2022-10-06T01:40:29.441Z,67.29
2022-10-06T01:46:04.364Z,66.90
2022-10-06T01:51:35.611Z,67.15
2022-10-06T01:57:08.572Z,67.20
2022-10-06T02:02:40.247Z,67.07
2022-10-06T02:08:11.341Z,66.94
2022-10-06T02:13:42.459Z,67.25
2022-10-06T02:19:13.729Z,67.30
2022-10-06T02:24:44.657Z,67.25
2022-10-06T02:30:16.115Z,67.51
2022-10-06T02:35:49.351Z,67.52
2022-10-06T02:41:20.513Z,67.24
2022-10-06T02:46:52.849Z,67.58
2022-10-06T02:52:24.243Z,67.52
2022-10-06T02:57:55.436Z,67.42
2022-10-06T03:03:26.831Z,67.72
2022-10-06T03:09:03.113Z,67.45
2022-10-06T03:14:35.779Z,68.00
2022-10-06T03:20:08.443Z,67.90
2022-10-06T03:25:39.896Z,68.00
2022-10-06T03:31:14.146Z,67.75
2022-10-06T03:36:45.141Z,68.05
2022-10-06T03:42:17.154Z,67.84
2022-10-06T03:47:49.787Z,67.88
2022-10-06T03:53:25.754Z,67.70
2022-10-06T03:58:59.990Z,68.12
2022-10-06T04:04:32.617Z,68.32
2022-10-06T04:10:08.375Z,67.83
2022-10-06T04:15:40.221Z,68.30
2022-10-06T04:21:13.052Z,67.95
2022-10-06T04:26:46.947Z,68.07
2022-10-06T04:32:18.030Z,68.57
2022-10-06T04:37:50.367Z,68.21
2022-10-06T04:43:22.211Z,67.97
2022-10-06T04:48:54.891Z,68.28
2022-10-06T04:54:33.514Z,67.93
2022-10-06T05:00:25.560Z,68.41
2022-10-06T05:06:08.689Z,68.11
2022-10-06T05:11:40.737Z,68.13
2022-10-06T05:17:15.494Z,67.92
2022-10-06T05:22:47.013Z,68.48
2022-10-06T05:28:18.401Z,68.00
2022-10-06T05:33:50.083Z,68.28
2022-10-06T05:39:21.364Z,68.29
2022-10-06T05:44:59.776Z,68.45
2022-10-06T05:50:31.238Z,68.31
2022-10-06T05:56:10.547Z,68.04
2022-10-06T06:01:44.251Z,68.08
2022-10-06T06:07:23.216Z,67.91
2022-10-06T06:12:54.457Z,68.18
2022-10-06T06:18:43.196Z,68.16
2022-10-06T06:24:18.193Z,67.84
2022-10-06T06:29:50.589Z,68.37
2022-10-06T06:35:22.586Z,68.53
2022-10-06T06:40:54.350Z,67.95
2022-10-06T06:46:32.139Z,68.08
2022-10-06T06:52:08.603Z,68.46
2022-10-06T06:57:42.997Z,68.36
2022-10-06T07:03:38.586Z,68.19
2022-10-06T07:09:11.665Z,68.16
2022-10-06T07:15:04.422Z,68.15
2022-10-06T07:20:59.414Z,68.05
2022-10-06T07:26:32.379Z,68.03
2022-10-06T07:32:04.660Z,68.29
2022-10-06T07:37:35.711Z,67.81
2022-10-06T07:43:07.361Z,67.54
2022-10-06T07:48:50.395Z,67.40
2022-10-06T07:54:26.526Z,67.50
2022-10-06T08:00:26.863Z,67.83
2022-10-06T08:05:59.726Z,67.80
2022-10-06T08:11:30.665Z,67.80
2022-10-06T08:17:01.707Z,67.52
2022-10-06T08:22:33.507Z,67.29
2022-10-06T08:28:04.621Z,67.62
2022-10-06T08:33:36.246Z,67.74
2022-10-06T08:39:07.489Z,68.12
2022-10-06T08:44:46.203Z,68.33
2022-10-06T08:50:18.191Z,68.27
2022-10-06T08:55:53.836Z,68.05
2022-10-06T09:01:45.359Z,67.96
2022-10-06T09:07:27.766Z,68.01
2022-10-06T09:13:07.614Z,67.90
2022-10-06T09:19:20.277Z,67.87
2022-10-06T09:24:59.596Z,67.87
2022-10-06T09:30:30.896Z,67.69
2022-10-06T09:36:10.014Z,67.59
2022-10-06T09:41:44.876Z,67.79
2022-10-06T09:47:34.994Z,68.08
2022-10-06T09:53:11.189Z,68.31
2022-10-06T09:58:55.311Z,68.50
2022-10-06T10:04:30.556Z,68.51
2022-10-06T10:10:23.398Z,68.62
2022-10-06T10:15:54.823Z,68.53
2022-10-06T10:21:30.202Z,68.51
2022-10-06T10:27:13.512Z,68.66
2022-10-06T10:33:05.456Z,68.67
2022-10-06T10:38:41.254Z,68.59
2022-10-06T10:44:26.937Z,68.24
2022-10-06T10:50:20.138Z,68.26
2022-10-06T10:55:53.749Z,68.08
2022-10-06T11:01:30.000Z,67.97
2022-10-06T11:07:09.557Z,68.00
2022-10-06T11:12:41.577Z,67.98
2022-10-06T11:18:48.208Z,67.76
2022-10-06T11:24:34.582Z,67.91
2022-10-06T11:30:19.316Z,68.00
2022-10-06T11:35:50.788Z,67.95
2022-10-06T11:41:34.168Z,67.91
2022-10-06T11:47:35.636Z,67.60
2022-10-06T11:53:32.329Z,67.67
2022-10-06T11:59:24.134Z,67.67
2022-10-06T12:05:36.291Z,67.73
2022-10-06T12:11:02.335Z,67.95
2022-10-06T12:22:51.983Z,67.94
2022-10-06T12:28:48.404Z,68.18
2022-10-06T12:34:38.302Z,68.10
2022-10-06T12:40:49.996Z,68.28
2022-10-06T12:46:26.308Z,68.54
2022-10-06T12:52:06.609Z,68.77
2022-10-06T12:57:50.936Z,68.81
2022-10-06T13:03:25.775Z,68.75
2022-10-06T13:09:14.082Z,68.68
2022-10-06T13:14:46.139Z,68.50
2022-10-06T13:20:27.621Z,68.32
2022-10-06T13:26:04.438Z,68.21
2022-10-06T13:31:36.789Z,68.24
2022-10-06T13:42:49.015Z,68.06
2022-10-06T13:48:21.275Z,68.10
2022-10-06T13:53:52.679Z,68.30
2022-10-06T13:59:32.384Z,67.80
2022-10-06T14:05:27.201Z,67.80
2022-10-06T14:11:01.410Z,68.16
2022-10-06T14:16:32.781Z,67.83
2022-10-06T14:22:05.457Z,67.62
2022-10-06T14:27:36.591Z,67.86
2022-10-06T14:33:08.609Z,67.94
2022-10-06T14:38:39.802Z,68.16
2022-10-06T14:44:12.437Z,67.83
2022-10-06T14:49:45.263Z,68.19
2022-10-06T14:55:16.245Z,68.52
2022-10-06T15:00:47.547Z,68.40
2022-10-06T15:06:36.802Z,68.12
2022-10-06T15:12:07.960Z,68.25
2022-10-06T15:17:39.332Z,68.36
2022-10-06T15:23:10.717Z,68.08
2022-10-06T15:28:59.977Z,67.91
2022-10-06T15:34:33.911Z,68.31
2022-10-06T15:40:05.818Z,68.78
2022-10-06T15:45:36.620Z,68.69
2022-10-06T15:51:08.351Z,68.90
2022-10-06T15:56:39.490Z,68.42
2022-10-06T16:02:14.855Z,68.95
2022-10-06T16:07:46.173Z,69.19
2022-10-06T16:13:17.304Z,69.02
2022-10-06T16:18:48.776Z,68.74
2022-10-06T16:24:21.119Z,68.83
2022-10-06T16:29:52.274Z,68.50
2022-10-06T16:35:23.662Z,68.56
2022-10-06T16:47:12.411Z,68.66
2022-10-06T16:52:43.762Z,68.96
2022-10-06T16:58:15.615Z,68.75
2022-10-06T17:03:46.599Z,68.80
2022-10-06T17:09:20.471Z,69.05
2022-10-06T17:14:51.522Z,68.96
2022-10-06T17:20:23.474Z,68.89
2022-10-06T17:26:17.607Z,68.70
2022-10-06T17:31:51.140Z,68.67
2022-10-06T17:37:22.029Z,68.64
2022-10-06T17:42:52.985Z,68.50
2022-10-06T17:48:27.274Z,68.21
2022-10-06T17:54:00.634Z,68.35
2022-10-06T17:59:32.122Z,67.72
2022-10-06T18:05:03.131Z,67.99
2022-10-06T18:10:59.775Z,68.03
2022-10-06T18:16:38.121Z,67.58
2022-10-06T18:22:10.761Z,67.66
2022-10-06T18:27:43.003Z,67.38
2022-10-06T18:39:05.837Z,67.55
2022-10-06T18:44:56.234Z,67.27
2022-10-06T18:50:27.880Z,67.25
2022-10-06T18:55:58.709Z,67.32
2022-10-06T19:01:31.132Z,66.87
2022-10-06T19:07:02.735Z,66.82
2022-10-06T19:12:34.118Z,66.57
2022-10-06T19:18:06.536Z,66.70
2022-10-06T19:23:38.849Z,66.84
2022-10-06T19:29:10.855Z,66.41
2022-10-06T19:34:44.429Z,65.98
2022-10-06T19:40:16.230Z,66.20
2022-10-06T19:45:58.214Z,66.19
2022-10-06T19:51:29.332Z,66.04
2022-10-06T19:57:05.183Z,66.29
2022-10-06T20:02:41.416Z,66.01
2022-10-06T20:08:13.381Z,65.86
2022-10-06T20:13:44.814Z,66.08
2022-10-06T20:19:16.039Z,65.72
2022-10-06T20:24:47.994Z,65.69
2022-10-06T20:30:18.872Z,65.89
2022-10-06T20:35:49.816Z,65.66
2022-10-06T20:41:20.831Z,65.87
2022-10-06T20:46:51.882Z,65.80
2022-10-06T20:52:24.466Z,65.78
2022-10-06T20:57:55.132Z,65.58
2022-10-06T21:03:26.154Z,65.51
2022-10-06T21:08:58.566Z,65.41
2022-10-06T21:14:30.373Z,65.76
2022-10-06T21:20:01.448Z,65.24
2022-10-06T21:25:37.080Z,65.93
2022-10-06T21:31:15.553Z,65.45
2022-10-06T21:36:47.028Z,65.38
2022-10-06T21:42:18.681Z,65.23
2022-10-06T21:47:49.618Z,65.31
2022-10-06T21:53:21.778Z,64.97
2022-10-06T21:58:53.774Z,65.06
2022-10-06T22:04:25.195Z,65.13
2022-10-06T22:09:56.529Z,64.74
2022-10-06T22:15:27.628Z,64.91
2022-10-06T22:21:00.247Z,65.01
2022-10-06T22:26:32.768Z,64.98
2022-10-06T22:32:03.926Z,65.49
2022-10-06T22:37:34.962Z,64.97
2022-10-06T22:43:05.727Z,64.93
2022-10-06T22:48:37.247Z,65.37
2022-10-06T22:54:09.666Z,65.25
2022-10-06T22:59:40.938Z,64.88
2022-10-06T23:05:12.361Z,65.40
2022-10-06T23:10:43.236Z,64.76
2022-10-06T23:16:16.646Z,65.07
2022-10-06T23:21:48.126Z,65.23
2022-10-06T23:27:19.483Z,65.23
2022-10-06T23:32:50.600Z,64.88
2022-10-06T23:38:21.409Z,64.95
2022-10-06T23:43:53.017Z,65.18
2022-10-06T23:49:24.327Z,65.24
2022-10-06T23:54:55.155Z,65.21
